sensor_id;sensor_type;location;lat;lon;timestamp;pressure;altitude;pressure_sealevel;temperature;humidity
41222;BME280;26952;42.884;23.918;2023-02-17T00:00:54;96657.47;;;3.41;82.08
41222;BME280;26952;42.884;23.918;2023-02-17T00:03:19;96664.78;;;3.36;84.86
41222;BME280;26952;42.884;23.918;2023-02-17T00:05:45;96651.72;;;3.36;84.49
41222;BME280;26952;42.884;23.918;2023-02-17T00:08:10;96652.88;;;3.32;85.63
41222;BME280;26952;42.884;23.918;2023-02-17T00:10:36;96644.41;;;3.29;84.46
41222;BME280;26952;42.884;23.918;2023-02-17T00:13:01;96645.09;;;3.43;83.76
41222;BME280;26952;42.884;23.918;2023-02-17T00:15:26;96649.88;;;3.49;83.64
41222;BME280;26952;42.884;23.918;2023-02-17T00:17:52;96638.47;;;3.50;82.67
41222;BME280;26952;42.884;23.918;2023-02-17T00:20:17;96636.13;;;3.58;82.15
41222;BME280;26952;42.884;23.918;2023-02-17T00:22:43;96654.03;;;3.64;81.49
41222;BME280;26952;42.884;23.918;2023-02-17T00:25:08;96622.06;;;3.48;82.04
41222;BME280;26952;42.884;23.918;2023-02-17T00:27:33;96640.44;;;3.59;82.46
41222;BME280;26952;42.884;23.918;2023-02-17T00:29:59;96644.44;;;3.52;83.42
41222;BME280;26952;42.884;23.918;2023-02-17T00:32:24;96631.81;;;3.46;84.45
41222;BME280;26952;42.884;23.918;2023-02-17T00:34:51;96628.34;;;3.46;85.07
41222;BME280;26952;42.884;23.918;2023-02-17T00:37:16;96627.81;;;3.41;86.38
41222;BME280;26952;42.884;23.918;2023-02-17T00:39:42;96633.19;;;3.39;85.17
41222;BME280;26952;42.884;23.918;2023-02-17T00:42:07;96625.44;;;3.38;85.34
41222;BME280;26952;42.884;23.918;2023-02-17T00:44:33;96633.91;;;3.41;84.02
41222;BME280;26952;42.884;23.918;2023-02-17T00:46:59;96626.69;;;3.45;84.32
41222;BME280;26952;42.884;23.918;2023-02-17T00:49:25;96621.22;;;3.48;85.24
41222;BME280;26952;42.884;23.918;2023-02-17T00:51:51;96617.06;;;3.45;84.92
41222;BME280;26952;42.884;23.918;2023-02-17T00:54:18;96594.94;;;3.26;85.75
41222;BME280;26952;42.884;23.918;2023-02-17T00:56:44;96602.91;;;3.24;86.19
41222;BME280;26952;42.884;23.918;2023-02-17T00:59:10;96607.06;;;3.27;85.06
41222;BME280;26952;42.884;23.918;2023-02-17T01:01:36;96602.22;;;3.33;84.77
41222;BME280;26952;42.884;23.918;2023-02-17T01:04:02;96593.88;;;3.28;84.79
41222;BME280;26952;42.884;23.918;2023-02-17T01:06:33;96597.00;;;3.33;85.47
41222;BME280;26952;42.884;23.918;2023-02-17T01:08:58;96585.84;;;3.19;86.82
41222;BME280;26952;42.884;23.918;2023-02-17T01:11:28;96598.88;;;3.31;85.49
41222;BME280;26952;42.884;23.918;2023-02-17T01:13:54;96585.81;;;3.31;84.87
41222;BME280;26952;42.884;23.918;2023-02-17T01:16:22;96593.00;;;3.40;84.54
41222;BME280;26952;42.884;23.918;2023-02-17T01:18:48;96590.09;;;3.32;85.92
41222;BME280;26952;42.884;23.918;2023-02-17T01:21:24;96587.53;;;2.83;89.83
41222;BME280;26952;42.884;23.918;2023-02-17T01:23:54;96565.59;;;2.73;91.30
41222;BME280;26952;42.884;23.918;2023-02-17T01:26:21;96585.84;;;2.82;91.96
41222;BME280;26952;42.884;23.918;2023-02-17T01:28:48;96571.28;;;2.91;91.85
41222;BME280;26952;42.884;23.918;2023-02-17T01:31:15;96561.28;;;2.85;90.44
41222;BME280;26952;42.884;23.918;2023-02-17T01:33:41;96540.78;;;2.79;89.86
41222;BME280;26952;42.884;23.918;2023-02-17T01:36:09;96571.34;;;3.02;89.24
41222;BME280;26952;42.884;23.918;2023-02-17T01:38:35;96575.63;;;3.16;89.32
41222;BME280;26952;42.884;23.918;2023-02-17T01:41:01;96571.25;;;3.04;89.61
41222;BME280;26952;42.884;23.918;2023-02-17T01:43:27;96581.38;;;3.08;89.93
41222;BME280;26952;42.884;23.918;2023-02-17T01:45:55;96564.69;;;2.98;89.50
41222;BME280;26952;42.884;23.918;2023-02-17T01:48:29;96585.56;;;3.11;88.19
41222;BME280;26952;42.884;23.918;2023-02-17T01:51:03;96560.06;;;3.02;87.62
41222;BME280;26952;42.884;23.918;2023-02-17T01:56:21;96569.06;;;2.98;88.95
41222;BME280;26952;42.884;23.918;2023-02-17T01:58:59;96567.81;;;3.03;89.41
41222;BME280;26952;42.884;23.918;2023-02-17T02:01:27;96564.81;;;3.20;86.13
41222;BME280;26952;42.884;23.918;2023-02-17T02:03:53;96566.06;;;3.15;88.24
41222;BME280;26952;42.884;23.918;2023-02-17T02:06:24;96549.25;;;3.19;87.45
41222;BME280;26952;42.884;23.918;2023-02-17T02:09:04;96530.63;;;3.34;83.98
41222;BME280;26952;42.884;23.918;2023-02-17T02:11:31;96558.72;;;3.32;85.95
41222;BME280;26952;42.884;23.918;2023-02-17T02:13:57;96548.28;;;3.20;85.46
41222;BME280;26952;42.884;23.918;2023-02-17T02:24:30;96564.06;;;2.95;90.53
41222;BME280;26952;42.884;23.918;2023-02-17T02:30:02;96563.72;;;2.75;91.76
41222;BME280;26952;42.884;23.918;2023-02-17T02:35:25;96553.94;;;2.90;89.34
41222;BME280;26952;42.884;23.918;2023-02-17T02:38:09;96552.19;;;2.78;91.46
41222;BME280;26952;42.884;23.918;2023-02-17T02:40:40;96563.66;;;2.88;89.42
41222;BME280;26952;42.884;23.918;2023-02-17T02:43:07;96540.06;;;2.77;89.75
41222;BME280;26952;42.884;23.918;2023-02-17T02:45:32;96547.41;;;2.72;90.91
41222;BME280;26952;42.884;23.918;2023-02-17T02:47:59;96559.97;;;3.03;87.80
41222;BME280;26952;42.884;23.918;2023-02-17T02:58:48;96543.63;;;3.12;87.01
41222;BME280;26952;42.884;23.918;2023-02-17T03:06:37;96558.84;;;3.18;86.59
41222;BME280;26952;42.884;23.918;2023-02-17T03:09:12;96552.31;;;3.13;87.80
41222;BME280;26952;42.884;23.918;2023-02-17T03:11:40;96552.69;;;3.19;86.89
41222;BME280;26952;42.884;23.918;2023-02-17T03:14:14;96568.81;;;3.13;87.87
41222;BME280;26952;42.884;23.918;2023-02-17T03:16:42;96563.84;;;2.98;89.19
41222;BME280;26952;42.884;23.918;2023-02-17T03:19:09;96555.50;;;2.93;88.88
41222;BME280;26952;42.884;23.918;2023-02-17T03:21:56;96577.66;;;3.00;90.02
41222;BME280;26952;42.884;23.918;2023-02-17T03:24:23;96560.13;;;2.76;90.02
41222;BME280;26952;42.884;23.918;2023-02-17T03:26:49;96579.91;;;2.68;92.90
41222;BME280;26952;42.884;23.918;2023-02-17T03:29:14;96577.06;;;2.71;90.99
41222;BME280;26952;42.884;23.918;2023-02-17T03:31:40;96583.50;;;2.91;90.29
41222;BME280;26952;42.884;23.918;2023-02-17T03:34:06;96563.47;;;2.78;90.57
41222;BME280;26952;42.884;23.918;2023-02-17T03:36:31;96556.34;;;2.80;90.52
41222;BME280;26952;42.884;23.918;2023-02-17T03:38:57;96574.84;;;2.90;90.96
41222;BME280;26952;42.884;23.918;2023-02-17T03:41:22;96581.13;;;2.88;91.49
41222;BME280;26952;42.884;23.918;2023-02-17T03:43:48;96562.41;;;2.81;92.60
41222;BME280;26952;42.884;23.918;2023-02-17T03:46:15;96579.88;;;2.93;91.68
41222;BME280;26952;42.884;23.918;2023-02-17T03:48:41;96570.13;;;2.95;90.45
41222;BME280;26952;42.884;23.918;2023-02-17T03:51:14;96573.34;;;3.11;91.12
41222;BME280;26952;42.884;23.918;2023-02-17T03:53:41;96566.69;;;2.95;91.62
41222;BME280;26952;42.884;23.918;2023-02-17T03:56:07;96561.88;;;2.88;92.54
41222;BME280;26952;42.884;23.918;2023-02-17T03:58:33;96562.38;;;3.06;91.76
41222;BME280;26952;42.884;23.918;2023-02-17T04:00:58;96579.94;;;3.04;91.01
41222;BME280;26952;42.884;23.918;2023-02-17T04:03:24;96569.44;;;3.17;89.66
41222;BME280;26952;42.884;23.918;2023-02-17T04:05:49;96564.81;;;3.20;89.17
41222;BME280;26952;42.884;23.918;2023-02-17T04:08:14;96576.75;;;3.24;89.30
41222;BME280;26952;42.884;23.918;2023-02-17T04:10:40;96542.72;;;3.01;90.18
41222;BME280;26952;42.884;23.918;2023-02-17T04:13:05;96567.22;;;3.23;88.79
41222;BME280;26952;42.884;23.918;2023-02-17T04:15:31;96570.28;;;3.17;89.46
41222;BME280;26952;42.884;23.918;2023-02-17T04:17:56;96555.94;;;2.87;91.70
41222;BME280;26952;42.884;23.918;2023-02-17T04:20:21;96559.97;;;3.03;92.55
41222;BME280;26952;42.884;23.918;2023-02-17T04:22:47;96572.72;;;3.08;92.10
41222;BME280;26952;42.884;23.918;2023-02-17T04:25:12;96572.19;;;3.03;92.03
41222;BME280;26952;42.884;23.918;2023-02-17T04:27:38;96556.28;;;3.06;91.59
41222;BME280;26952;42.884;23.918;2023-02-17T04:30:04;96574.03;;;3.13;91.02
41222;BME280;26952;42.884;23.918;2023-02-17T04:32:29;96574.78;;;3.15;91.31
41222;BME280;26952;42.884;23.918;2023-02-17T04:34:55;96571.47;;;3.01;92.32
41222;BME280;26952;42.884;23.918;2023-02-17T04:37:20;96566.34;;;2.99;92.09
41222;BME280;26952;42.884;23.918;2023-02-17T04:39:45;96572.16;;;3.15;91.38
41222;BME280;26952;42.884;23.918;2023-02-17T04:42:11;96563.97;;;3.20;90.67
41222;BME280;26952;42.884;23.918;2023-02-17T04:44:36;96588.69;;;3.39;90.02
41222;BME280;26952;42.884;23.918;2023-02-17T04:47:02;96593.19;;;3.37;91.05
41222;BME280;26952;42.884;23.918;2023-02-17T04:49:27;96576.13;;;3.44;90.47
41222;BME280;26952;42.884;23.918;2023-02-17T04:51:52;96581.13;;;3.47;88.60
41222;BME280;26952;42.884;23.918;2023-02-17T04:54:18;96572.66;;;3.44;89.82
41222;BME280;26952;42.884;23.918;2023-02-17T04:56:43;96591.88;;;3.55;88.49
41222;BME280;26952;42.884;23.918;2023-02-17T04:59:08;96599.06;;;3.64;88.75
41222;BME280;26952;42.884;23.918;2023-02-17T05:01:34;96589.78;;;3.71;86.99
41222;BME280;26952;42.884;23.918;2023-02-17T05:03:59;96591.72;;;3.69;87.80
41222;BME280;26952;42.884;23.918;2023-02-17T05:06:25;96600.72;;;3.65;88.11
41222;BME280;26952;42.884;23.918;2023-02-17T05:08:50;96589.13;;;3.57;87.47
41222;BME280;26952;42.884;23.918;2023-02-17T05:11:17;96605.22;;;3.63;88.71
41222;BME280;26952;42.884;23.918;2023-02-17T05:13:43;96601.63;;;3.53;88.87
41222;BME280;26952;42.884;23.918;2023-02-17T05:16:08;96615.50;;;3.66;88.41
41222;BME280;26952;42.884;23.918;2023-02-17T05:18:33;96606.34;;;3.72;87.72
41222;BME280;26952;42.884;23.918;2023-02-17T05:20:59;96601.63;;;3.77;87.86
41222;BME280;26952;42.884;23.918;2023-02-17T05:23:24;96614.75;;;3.88;87.51
41222;BME280;26952;42.884;23.918;2023-02-17T05:25:50;96613.69;;;3.90;86.90
41222;BME280;26952;42.884;23.918;2023-02-17T05:28:15;96610.44;;;3.76;87.57
41222;BME280;26952;42.884;23.918;2023-02-17T05:30:40;96623.78;;;3.84;87.45
41222;BME280;26952;42.884;23.918;2023-02-17T05:33:06;96620.81;;;3.88;86.51
41222;BME280;26952;42.884;23.918;2023-02-17T05:35:33;96633.19;;;3.86;87.19
41222;BME280;26952;42.884;23.918;2023-02-17T05:37:59;96620.44;;;3.82;87.23
41222;BME280;26952;42.884;23.918;2023-02-17T05:40:24;96633.41;;;3.83;86.35
41222;BME280;26952;42.884;23.918;2023-02-17T05:42:50;96633.41;;;3.83;87.32
41222;BME280;26952;42.884;23.918;2023-02-17T05:45:15;96644.03;;;3.93;85.37
41222;BME280;26952;42.884;23.918;2023-02-17T05:47:41;96646.09;;;4.00;85.16
41222;BME280;26952;42.884;23.918;2023-02-17T05:50:06;96649.00;;;4.08;84.73
41222;BME280;26952;42.884;23.918;2023-02-17T05:52:32;96655.28;;;4.30;84.72
41222;BME280;26952;42.884;23.918;2023-02-17T05:54:57;96639.25;;;4.21;83.34
41222;BME280;26952;42.884;23.918;2023-02-17T05:57:23;96651.44;;;4.22;85.09
41222;BME280;26952;42.884;23.918;2023-02-17T05:59:48;96636.25;;;4.15;83.81
41222;BME280;26952;42.884;23.918;2023-02-17T06:02:13;96646.91;;;4.24;81.85
41222;BME280;26952;42.884;23.918;2023-02-17T06:04:39;96650.06;;;4.41;81.10
41222;BME280;26952;42.884;23.918;2023-02-17T06:07:04;96651.75;;;4.64;79.10
41222;BME280;26952;42.884;23.918;2023-02-17T06:09:29;96644.59;;;4.77;79.19
41222;BME280;26952;42.884;23.918;2023-02-17T06:11:55;96656.28;;;4.62;81.39
41222;BME280;26952;42.884;23.918;2023-02-17T06:14:20;96662.13;;;4.65;81.35
41222;BME280;26952;42.884;23.918;2023-02-17T06:16:46;96664.03;;;4.74;80.51
41222;BME280;26952;42.884;23.918;2023-02-17T06:19:11;96656.78;;;4.89;80.51
41222;BME280;26952;42.884;23.918;2023-02-17T06:21:36;96670.50;;;5.03;79.60
41222;BME280;26952;42.884;23.918;2023-02-17T06:24:02;96663.38;;;5.05;79.07
41222;BME280;26952;42.884;23.918;2023-02-17T06:26:27;96675.41;;;5.30;78.82
41222;BME280;26952;42.884;23.918;2023-02-17T06:28:53;96674.31;;;5.43;78.14
41222;BME280;26952;42.884;23.918;2023-02-17T06:31:18;96677.03;;;5.53;77.15
41222;BME280;26952;42.884;23.918;2023-02-17T06:33:43;96682.38;;;5.62;76.21
41222;BME280;26952;42.884;23.918;2023-02-17T06:36:09;96682.00;;;5.78;75.65
41222;BME280;26952;42.884;23.918;2023-02-17T06:38:34;96683.94;;;5.87;74.69
41222;BME280;26952;42.884;23.918;2023-02-17T06:41:00;96690.41;;;5.72;75.32
41222;BME280;26952;42.884;23.918;2023-02-17T06:43:25;96693.03;;;5.72;75.32
41222;BME280;26952;42.884;23.918;2023-02-17T06:45:50;96685.59;;;5.77;74.86
41222;BME280;26952;42.884;23.918;2023-02-17T06:48:16;96697.66;;;5.80;74.79
41222;BME280;26952;42.884;23.918;2023-02-17T06:50:41;96686.56;;;5.76;74.90
41222;BME280;26952;42.884;23.918;2023-02-17T06:53:06;96694.19;;;5.79;74.00
41222;BME280;26952;42.884;23.918;2023-02-17T06:55:32;96702.06;;;5.79;73.85
41222;BME280;26952;42.884;23.918;2023-02-17T06:57:59;96697.56;;;5.70;74.59
41222;BME280;26952;42.884;23.918;2023-02-17T07:00:25;96699.00;;;5.63;75.18
41222;BME280;26952;42.884;23.918;2023-02-17T07:02:51;96695.41;;;5.53;75.81
41222;BME280;26952;42.884;23.918;2023-02-17T07:05:16;96688.84;;;5.58;75.07
41222;BME280;26952;42.884;23.918;2023-02-17T07:07:42;96697.34;;;5.62;74.55
41222;BME280;26952;42.884;23.918;2023-02-17T07:10:07;96692.66;;;5.54;75.11
41222;BME280;26952;42.884;23.918;2023-02-17T07:12:33;96695.16;;;5.56;75.12
41222;BME280;26952;42.884;23.918;2023-02-17T07:14:58;96695.88;;;5.58;74.83
41222;BME280;26952;42.884;23.918;2023-02-17T07:17:23;96688.50;;;5.52;74.92
41222;BME280;26952;42.884;23.918;2023-02-17T07:19:49;96685.03;;;5.51;74.96
41222;BME280;26952;42.884;23.918;2023-02-17T07:22:14;96673.25;;;5.46;74.56
41222;BME280;26952;42.884;23.918;2023-02-17T07:24:40;96692.53;;;5.56;74.86
41222;BME280;26952;42.884;23.918;2023-02-17T07:27:05;96698.78;;;5.44;75.07
41222;BME280;26952;42.884;23.918;2023-02-17T07:29:32;96690.16;;;5.53;75.23
41222;BME280;26952;42.884;23.918;2023-02-17T07:31:58;96708.91;;;5.71;74.58
41222;BME280;26952;42.884;23.918;2023-02-17T07:34:24;96706.50;;;5.79;74.62
41222;BME280;26952;42.884;23.918;2023-02-17T07:36:49;96711.31;;;6.16;73.16
41222;BME280;26952;42.884;23.918;2023-02-17T07:39:15;96707.69;;;6.80;71.80
41222;BME280;26952;42.884;23.918;2023-02-17T07:41:40;96715.41;;;7.53;69.13
41222;BME280;26952;42.884;23.918;2023-02-17T07:44:06;96710.47;;;8.18;66.06
41222;BME280;26952;42.884;23.918;2023-02-17T07:46:31;96694.09;;;8.63;61.72
41222;BME280;26952;42.884;23.918;2023-02-17T07:48:57;96701.97;;;9.10;60.99
41222;BME280;26952;42.884;23.918;2023-02-17T07:51:23;96692.66;;;9.52;57.30
41222;BME280;26952;42.884;23.918;2023-02-17T07:53:49;96707.06;;;9.95;56.21
41222;BME280;26952;42.884;23.918;2023-02-17T07:56:17;96707.47;;;10.44;54.29
41222;BME280;26952;42.884;23.918;2023-02-17T07:58:43;96714.13;;;10.83;53.80
41222;BME280;26952;42.884;23.918;2023-02-17T08:01:21;96718.91;;;11.23;52.20
41222;BME280;26952;42.884;23.918;2023-02-17T08:03:47;96710.66;;;11.60;51.45
41222;BME280;26952;42.884;23.918;2023-02-17T08:06:16;96721.59;;;11.82;50.01
41222;BME280;26952;42.884;23.918;2023-02-17T08:08:42;96717.00;;;11.92;49.39
41222;BME280;26952;42.884;23.918;2023-02-17T08:11:26;96717.75;;;12.18;46.73
41222;BME280;26952;42.884;23.918;2023-02-17T08:14:11;96712.50;;;12.34;47.92
41222;BME280;26952;42.884;23.918;2023-02-17T08:16:36;96718.16;;;12.47;46.29
41222;BME280;26952;42.884;23.918;2023-02-17T08:19:01;96727.19;;;12.71;45.89
41222;BME280;26952;42.884;23.918;2023-02-17T08:21:27;96718.56;;;12.93;45.93
41222;BME280;26952;42.884;23.918;2023-02-17T08:23:53;96713.91;;;12.95;44.73
41222;BME280;26952;42.884;23.918;2023-02-17T08:26:20;96709.91;;;12.67;44.78
41222;BME280;26952;42.884;23.918;2023-02-17T08:28:46;96708.44;;;12.80;44.17
41222;BME280;26952;42.884;23.918;2023-02-17T08:31:23;96712.56;;;12.99;44.89
41222;BME280;26952;42.884;23.918;2023-02-17T08:33:49;96706.13;;;13.09;44.41
41222;BME280;26952;42.884;23.918;2023-02-17T08:36:15;96693.97;;;13.23;44.76
41222;BME280;26952;42.884;23.918;2023-02-17T08:38:40;96707.28;;;13.07;42.84
41222;BME280;26952;42.884;23.918;2023-02-17T08:41:24;96715.56;;;13.28;41.62
41222;BME280;26952;42.884;23.918;2023-02-17T08:43:51;96707.44;;;13.21;41.43
41222;BME280;26952;42.884;23.918;2023-02-17T08:46:17;96712.28;;;13.18;45.62
41222;BME280;26952;42.884;23.918;2023-02-17T08:48:43;96710.91;;;13.38;43.91
41222;BME280;26952;42.884;23.918;2023-02-17T08:51:14;96717.53;;;13.66;43.98
41222;BME280;26952;42.884;23.918;2023-02-17T08:53:40;96706.22;;;13.64;42.73
41222;BME280;26952;42.884;23.918;2023-02-17T08:56:08;96714.44;;;13.93;40.75
41222;BME280;26952;42.884;23.918;2023-02-17T08:58:34;96708.03;;;14.18;39.92
41222;BME280;26952;42.884;23.918;2023-02-17T09:01:00;96703.25;;;14.44;42.04
41222;BME280;26952;42.884;23.918;2023-02-17T09:03:25;96705.47;;;14.63;42.34
41222;BME280;26952;42.884;23.918;2023-02-17T09:05:55;96698.25;;;14.41;39.23
41222;BME280;26952;42.884;23.918;2023-02-17T09:08:21;96716.78;;;14.65;42.95
41222;BME280;26952;42.884;23.918;2023-02-17T09:10:48;96719.63;;;14.86;38.77
41222;BME280;26952;42.884;23.918;2023-02-17T09:13:14;96717.72;;;14.95;40.64
41222;BME280;26952;42.884;23.918;2023-02-17T09:15:39;96704.44;;;14.87;38.89
41222;BME280;26952;42.884;23.918;2023-02-17T09:18:04;96699.03;;;15.17;41.70
41222;BME280;26952;42.884;23.918;2023-02-17T09:20:30;96687.38;;;15.18;35.78
41222;BME280;26952;42.884;23.918;2023-02-17T09:22:55;96691.25;;;15.30;42.34
41222;BME280;26952;42.884;23.918;2023-02-17T09:25:21;96699.13;;;15.47;36.75
41222;BME280;26952;42.884;23.918;2023-02-17T09:27:47;96702.66;;;15.62;36.21
41222;BME280;26952;42.884;23.918;2023-02-17T09:30:13;96700.88;;;15.40;35.11
41222;BME280;26952;42.884;23.918;2023-02-17T09:32:42;96684.88;;;15.40;38.21
41222;BME280;26952;42.884;23.918;2023-02-17T09:35:12;96702.94;;;15.67;35.97
41222;BME280;26952;42.884;23.918;2023-02-17T09:37:37;96710.47;;;15.78;37.53
41222;BME280;26952;42.884;23.918;2023-02-17T09:40:03;96715.63;;;15.65;34.84
41222;BME280;26952;42.884;23.918;2023-02-17T09:42:30;96705.69;;;15.59;39.33
41222;BME280;26952;42.884;23.918;2023-02-17T09:45:09;96707.00;;;15.92;38.59
41222;BME280;26952;42.884;23.918;2023-02-17T09:47:41;96707.69;;;16.29;35.50
41222;BME280;26952;42.884;23.918;2023-02-17T09:50:13;96706.25;;;16.12;32.17
41222;BME280;26952;42.884;23.918;2023-02-17T09:53:00;96709.19;;;16.17;29.65
41222;BME280;26952;42.884;23.918;2023-02-17T09:55:29;96690.88;;;15.56;29.88
41222;BME280;26952;42.884;23.918;2023-02-17T09:58:05;96707.72;;;15.86;30.04
41222;BME280;26952;42.884;23.918;2023-02-17T10:00:52;96688.38;;;16.27;31.42
41222;BME280;26952;42.884;23.918;2023-02-17T10:08:54;96682.81;;;17.00;29.53
41222;BME280;26952;42.884;23.918;2023-02-17T10:11:30;96688.19;;;17.28;29.85
41222;BME280;26952;42.884;23.918;2023-02-17T10:14:01;96674.63;;;17.29;29.67
41222;BME280;26952;42.884;23.918;2023-02-17T10:16:35;96670.50;;;17.54;28.99
41222;BME280;26952;42.884;23.918;2023-02-17T10:19:15;96678.31;;;17.83;27.11
41222;BME280;26952;42.884;23.918;2023-02-17T10:21:54;96682.69;;;17.08;27.14
41222;BME280;26952;42.884;23.918;2023-02-17T10:24:23;96666.09;;;17.19;27.80
41222;BME280;26952;42.884;23.918;2023-02-17T10:29:41;96669.56;;;17.13;30.45
41222;BME280;26952;42.884;23.918;2023-02-17T10:37:28;96676.00;;;17.46;27.57
41222;BME280;26952;42.884;23.918;2023-02-17T10:39:59;96640.53;;;17.17;26.31
41222;BME280;26952;42.884;23.918;2023-02-17T10:42:35;96652.28;;;16.74;27.92
41222;BME280;26952;42.884;23.918;2023-02-17T10:45:10;96663.81;;;16.95;28.35
41222;BME280;26952;42.884;23.918;2023-02-17T10:47:37;96663.56;;;17.11;28.17
41222;BME280;26952;42.884;23.918;2023-02-17T10:50:07;96644.03;;;17.17;29.58
41222;BME280;26952;42.884;23.918;2023-02-17T10:52:39;96649.78;;;17.42;28.02
41222;BME280;26952;42.884;23.918;2023-02-17T10:55:08;96643.81;;;17.67;28.18
41222;BME280;26952;42.884;23.918;2023-02-17T10:57:39;96643.88;;;17.80;27.83
41222;BME280;26952;42.884;23.918;2023-02-17T11:00:06;96632.78;;;17.83;27.76
41222;BME280;26952;42.884;23.918;2023-02-17T11:02:42;96635.09;;;17.93;27.99
41222;BME280;26952;42.884;23.918;2023-02-17T11:05:20;96621.22;;;17.76;28.98
41222;BME280;26952;42.884;23.918;2023-02-17T11:07:47;96636.31;;;17.90;27.40
41222;BME280;26952;42.884;23.918;2023-02-17T11:10:26;96631.66;;;18.06;26.61
41222;BME280;26952;42.884;23.918;2023-02-17T11:12:52;96632.50;;;18.13;27.16
41222;BME280;26952;42.884;23.918;2023-02-17T11:15:23;96620.22;;;18.31;27.73
41222;BME280;26952;42.884;23.918;2023-02-17T11:17:50;96612.47;;;18.56;27.41
41222;BME280;26952;42.884;23.918;2023-02-17T11:22:44;96601.44;;;17.77;26.63
41222;BME280;26952;42.884;23.918;2023-02-17T11:28:14;96614.81;;;17.77;25.81
41222;BME280;26952;42.884;23.918;2023-02-17T11:30:55;96596.72;;;17.45;26.55
41222;BME280;26952;42.884;23.918;2023-02-17T11:33:30;96579.56;;;16.85;26.91
41222;BME280;26952;42.884;23.918;2023-02-17T11:35:56;96607.81;;;16.45;26.46
41222;BME280;26952;42.884;23.918;2023-02-17T11:38:40;96597.72;;;16.68;27.86
41222;BME280;26952;42.884;23.918;2023-02-17T11:41:07;96590.63;;;17.03;27.34
41222;BME280;26952;42.884;23.918;2023-02-17T11:43:34;96597.91;;;17.43;27.72
41222;BME280;26952;42.884;23.918;2023-02-17T11:51:21;96571.75;;;15.70;28.88
41222;BME280;26952;42.884;23.918;2023-02-17T11:56:33;96563.59;;;15.92;27.98
41222;BME280;26952;42.884;23.918;2023-02-17T11:59:16;96596.13;;;15.96;27.37
41222;BME280;26952;42.884;23.918;2023-02-17T12:02:38;96593.09;;;16.20;28.32
41222;BME280;26952;42.884;23.918;2023-02-17T12:04:53;96578.38;;;16.24;29.15
41222;BME280;26952;42.884;23.918;2023-02-17T12:07:45;96593.59;;;16.09;28.91
41222;BME280;26952;42.884;23.918;2023-02-17T12:12:57;96581.38;;;16.00;28.40
41222;BME280;26952;42.884;23.918;2023-02-17T12:25:56;96573.56;;;15.98;29.24
41222;BME280;26952;42.884;23.918;2023-02-17T12:34:16;96556.78;;;16.25;28.33
41222;BME280;26952;42.884;23.918;2023-02-17T12:36:46;96544.56;;;15.81;28.66
41222;BME280;26952;42.884;23.918;2023-02-17T12:39:19;96541.47;;;15.63;28.54
41222;BME280;26952;42.884;23.918;2023-02-17T12:42:20;96550.03;;;15.58;29.36
41222;BME280;26952;42.884;23.918;2023-02-17T12:44:51;96530.00;;;15.48;29.65
41222;BME280;26952;42.884;23.918;2023-02-17T12:47:31;96531.19;;;15.45;29.80
41222;BME280;26952;42.884;23.918;2023-02-17T12:50:14;96542.78;;;15.67;31.04
41222;BME280;26952;42.884;23.918;2023-02-17T12:52:45;96533.34;;;15.50;29.44
41222;BME280;26952;42.884;23.918;2023-02-17T12:55:20;96511.97;;;15.35;29.38
41222;BME280;26952;42.884;23.918;2023-02-17T12:57:53;96523.06;;;15.68;31.30
41222;BME280;26952;42.884;23.918;2023-02-17T13:00:38;96533.16;;;15.87;29.60
41222;BME280;26952;42.884;23.918;2023-02-17T13:03:05;96499.91;;;15.54;28.53
41222;BME280;26952;42.884;23.918;2023-02-17T13:05:36;96528.16;;;15.98;30.85
41222;BME280;26952;42.884;23.918;2023-02-17T13:08:43;96496.00;;;16.06;28.91
41222;BME280;26952;42.884;23.918;2023-02-17T13:11:23;96510.28;;;16.20;28.20
41222;BME280;26952;42.884;23.918;2023-02-17T13:13:49;96510.72;;;16.02;29.81
41222;BME280;26952;42.884;23.918;2023-02-17T13:16:15;96510.78;;;16.09;28.97
41222;BME280;26952;42.884;23.918;2023-02-17T13:18:42;96518.69;;;16.17;29.15
41222;BME280;26952;42.884;23.918;2023-02-17T13:23:44;96503.41;;;16.11;28.27
41222;BME280;26952;42.884;23.918;2023-02-17T13:28:42;96503.56;;;16.24;29.87
41222;BME280;26952;42.884;23.918;2023-02-17T13:31:17;96525.66;;;16.39;34.89
41222;BME280;26952;42.884;23.918;2023-02-17T13:36:55;96505.91;;;16.33;35.76
41222;BME280;26952;42.884;23.918;2023-02-17T13:41:50;96509.09;;;15.66;33.95
41222;BME280;26952;42.884;23.918;2023-02-17T13:44:30;96501.84;;;15.45;33.23
41222;BME280;26952;42.884;23.918;2023-02-17T13:47:02;96507.81;;;15.32;37.26
41222;BME280;26952;42.884;23.918;2023-02-17T13:49:32;96518.22;;;15.13;37.71
41222;BME280;26952;42.884;23.918;2023-02-17T13:52:37;96516.94;;;15.09;39.36
41222;BME280;26952;42.884;23.918;2023-02-17T13:55:17;96529.53;;;14.49;39.72
41222;BME280;26952;42.884;23.918;2023-02-17T13:57:43;96516.63;;;14.60;39.67
41222;BME280;26952;42.884;23.918;2023-02-17T14:02:55;96523.31;;;14.11;40.64
41222;BME280;26952;42.884;23.918;2023-02-17T14:05:48;96531.78;;;13.92;41.77
41222;BME280;26952;42.884;23.918;2023-02-17T14:08:26;96528.34;;;13.53;41.45
41222;BME280;26952;42.884;23.918;2023-02-17T14:10:53;96535.47;;;13.22;42.26
41222;BME280;26952;42.884;23.918;2023-02-17T14:13:19;96525.41;;;13.01;42.88
41222;BME280;26952;42.884;23.918;2023-02-17T14:15:56;96525.91;;;12.73;43.54
41222;BME280;26952;42.884;23.918;2023-02-17T14:21:55;96522.66;;;12.38;44.42
41222;BME280;26952;42.884;23.918;2023-02-17T14:23:47;96512.38;;;12.03;43.06
41222;BME280;26952;42.884;23.918;2023-02-17T14:27:00;96511.22;;;12.06;45.13
41222;BME280;26952;42.884;23.918;2023-02-17T14:29:06;96517.00;;;11.77;44.95
41222;BME280;26952;42.884;23.918;2023-02-17T14:31:37;96519.28;;;11.64;45.56
41222;BME280;26952;42.884;23.918;2023-02-17T14:34:04;96520.69;;;11.35;46.92
41222;BME280;26952;42.884;23.918;2023-02-17T14:36:36;96521.44;;;11.19;46.73